Portada
METAR-TAF:

METAR-TAF

Aeroports :

Fukuoka, Japó

latitud: 33-35N, longitud: 130-27E, altitud: 9 m

Observació

L'informe es va fer fa 35 minuts, a les 03:00 UTC
Vent 6 kt del Nord-Oest, variant entre Oest i Nord
Temperatura 21°C
Humitat 49%
Pressió 1019 hPa
Visibilitat 10 km o més
Escasses núvols a una alçada de 3500 ft
Núvols disperses

METAR: RJFF 270300Z 32006KT 270V360 9999 FEW035 SCT/// 21/10 Q1019 NOSIG

Hora: 12:35 (03:35 UTC)

Pronòstic

L'informe es va fer fa 4 hores i 28 minuts, a les 23:07 UTC
Pronòstic vàlid del 27 a les 00 UTC al 28 a les 06 UTC
Vent 8 kt del Nord/Nord-Oest
Visibilitat 10 km o més
Escasses núvols a una alçada de 4000 ft
Evolucionant progressivament
l' 27 a les 10 UTC al 27 a les 12 UTC
Vent 5 kt del Sud/Sud-Est
Evolucionant progressivament
l' 28 a les 00 UTC al 28 a les 03 UTC
Vent 6 kt del Nord-Oest

TAF: RJFF 262307Z 2700/2806 33008KT 9999 FEW040 BECMG 2710/2712 15005KT BECMG 2800/2803 31006KT

Observacions i pronòstics meteorològics de més de 4000 aeroports (METAR i TAF).

Les estacions disponibles són els punts grocs i vermells al mapa.

Posi el ratolí al punt desitjat per veure el nom de l'estació.

Feu clic per veure les observacions i els pronòstics meteorològics.

Per canviar el mapa: feu clic els botons verds amb una creu de color negre per apropar; al botó verd amb un guió per allunyar la imatge; o en les fletxes verdes per a mapes adjacents.


METAR-TAF: